Time,TemperatureF,DewpointF,PressureIn,WindDirection,WindDirectionDegrees,WindSpeedMPH,WindSpeedGustMPH,Humidity,HourlyPrecipIn,Conditions,Clouds,dailyrainin,SoftwareType,DateUTC
2013-09-19 06:00:00,58.3,54.5,29.98,North,-999,-999.0,0.0,87,0.00,,---,0.00,VWS V14.01,2013-09-19 10:00:00,
2013-09-19 06:05:00,58.3,54.5,29.98,North,-999,-999.0,0.0,87,0.00,,---,0.00,VWS V14.01,2013-09-19 10:05:00,
2013-09-19 07:00:00,57.6,53.8,29.98,North,-999,-999.0,0.0,87,0.00,,---,0.00,VWS V14.01,2013-09-19 11:00:00,
2013-09-19 07:05:00,57.6,53.8,29.98,North,-999,-999.0,0.0,87,0.00,,---,0.00,VWS V14.01,2013-09-19 11:05:00,
2013-09-19 08:00:00,58.1,54.3,29.99,North,-999,-999.0,0.0,87,0.00,,---,0.00,VWS V14.01,2013-09-19 12:00:00,
2013-09-19 08:05:00,58.1,54.3,29.99,North,-999,-999.0,0.0,87,0.00,,---,0.00,VWS V14.01,2013-09-19 12:05:00,
2013-09-19 10:00:00,70.0,63.2,30.00,North,-999,-999.0,0.0,79,0.00,,---,0.00,VWS V14.01,2013-09-19 14:00:00,
2013-09-19 10:06:00,70.0,63.2,30.00,North,-999,-999.0,0.0,79,0.00,,---,0.00,VWS V14.01,2013-09-19 14:06:00,
2013-09-19 11:00:00,84.4,65.9,30.00,North,-999,-999.0,0.0,54,0.00,,---,0.00,VWS V14.01,2013-09-19 15:00:00,
2013-09-19 11:06:00,84.4,65.9,30.00,North,-999,-999.0,0.0,54,0.00,,---,0.00,VWS V14.01,2013-09-19 15:06:00,
2013-09-19 12:00:00,85.5,64.2,29.99,North,-999,-999.0,0.0,49,0.00,,---,0.00,VWS V14.01,2013-09-19 16:00:00,
2013-09-19 12:06:00,85.5,64.2,29.99,North,-999,-999.0,0.0,49,0.00,,---,0.00,VWS V14.01,2013-09-19 16:06:00,
2013-09-19 13:00:00,90.0,65.8,29.96,North,-999,-999.0,0.0,45,0.00,,---,0.00,VWS V14.01,2013-09-19 17:00:00,
2013-09-19 13:05:00,90.0,65.8,29.96,North,-999,-999.0,0.0,45,0.00,,---,0.00,VWS V14.01,2013-09-19 17:05:00,
2013-09-19 14:00:00,95.2,67.1,29.94,North,-999,-999.0,0.0,40,0.00,,---,0.00,VWS V14.01,2013-09-19 18:00:00,
2013-09-19 14:05:00,95.2,67.1,29.94,North,-999,-999.0,0.0,40,0.00,,---,0.00,VWS V14.01,2013-09-19 18:05:00,
2013-09-19 16:00:00,91.8,64.8,29.90,North,-999,-999.0,0.0,41,0.00,,---,0.00,VWS V14.01,2013-09-19 20:00:00,
2013-09-19 16:05:00,90.4,65.5,29.90,North,-999,-999.0,0.0,44,0.00,,---,0.00,VWS V14.01,2013-09-19 20:05:00,
2013-09-19 16:10:00,89.6,64.8,29.90,North,-999,-999.0,0.0,44,0.00,,---,0.00,VWS V14.01,2013-09-19 20:10:00,
2013-09-19 16:15:00,88.6,64.6,29.90,North,-999,-999.0,0.0,45,0.00,,---,0.00,VWS V14.01,2013-09-19 20:15:00,
2013-09-19 16:20:00,88.6,65.2,29.90,North,-999,-999.0,0.0,46,0.00,,---,0.00,VWS V14.01,2013-09-19 20:20:00,
2013-09-19 16:25:00,87.7,65.0,29.90,North,-999,-999.0,0.0,47,0.00,,---,0.00,VWS V14.01,2013-09-19 20:25:00,
2013-09-19 16:30:00,88.7,65.9,29.90,North,-999,-999.0,0.0,47,0.00,,---,0.00,VWS V14.01,2013-09-19 20:30:00,
2013-09-19 16:35:00,89.1,66.3,29.90,North,-999,-999.0,0.0,47,0.00,,---,0.00,VWS V14.01,2013-09-19 20:35:00,
2013-09-19 16:40:00,88.7,65.9,29.90,North,-999,-999.0,0.0,47,0.00,,---,0.00,VWS V14.01,2013-09-19 20:40:00,
2013-09-19 16:45:00,90.4,67.4,29.90,North,-999,-999.0,0.0,47,0.00,,---,0.00,VWS V14.01,2013-09-19 20:45:00,
2013-09-19 16:51:00,94.0,68.8,29.90,North,-999,-999.0,0.0,44,0.00,,---,0.00,VWS V14.01,2013-09-19 20:51:00,
2013-09-19 16:57:00,94.7,68.1,29.90,North,-999,-999.0,0.0,42,0.00,,---,0.00,VWS V14.01,2013-09-19 20:57:00,
2013-09-19 17:03:00,92.7,66.9,29.90,North,-999,-999.0,0.0,43,0.00,,---,0.00,VWS V14.01,2013-09-19 21:03:00,
2013-09-19 17:08:00,91.1,65.5,29.90,North,-999,-999.0,0.0,43,0.00,,---,0.00,VWS V14.01,2013-09-19 21:08:00,
2013-09-19 17:13:00,91.1,66.8,29.89,North,-999,-999.0,0.0,45,0.00,,---,0.00,VWS V14.01,2013-09-19 21:13:00,
2013-09-19 17:18:00,91.3,67.0,29.90,North,-999,-999.0,0.0,45,0.00,,---,0.00,VWS V14.01,2013-09-19 21:18:00,
2013-09-19 17:23:00,91.8,67.4,29.89,North,-999,-999.0,0.0,45,0.00,,---,0.00,VWS V14.01,2013-09-19 21:23:00,
2013-09-19 17:28:00,91.8,66.1,29.89,North,-999,-999.0,0.0,43,0.00,,---,0.00,VWS V14.01,2013-09-19 21:28:00,
2013-09-19 17:33:00,89.8,65.6,29.90,North,-999,-999.0,0.0,45,0.00,,---,0.00,VWS V14.01,2013-09-19 21:33:00,
2013-09-19 17:38:00,88.9,66.1,29.89,North,-999,-999.0,0.0,47,0.00,,---,0.00,VWS V14.01,2013-09-19 21:38:00,
2013-09-19 17:43:00,89.8,67.5,29.90,North,-999,-999.0,0.0,48,0.00,,---,0.00,VWS V14.01,2013-09-19 21:43:00,
2013-09-19 17:48:00,90.0,67.1,29.90,North,-999,-999.0,0.0,47,0.00,,---,0.00,VWS V14.01,2013-09-19 21:48:00,
2013-09-19 17:53:00,88.2,66.1,29.90,North,-999,-999.0,0.0,48,0.00,,---,0.00,VWS V14.01,2013-09-19 21:53:00,
2013-09-19 17:58:00,86.8,65.9,29.90,North,-999,-999.0,0.0,50,0.00,,---,0.00,VWS V14.01,2013-09-19 21:58:00,
2013-09-19 18:04:00,86.0,65.8,29.90,North,-999,-999.0,0.0,51,0.00,,---,0.00,VWS V14.01,2013-09-19 22:04:00,
2013-09-19 18:09:00,84.8,65.8,29.90,North,-999,-999.0,0.0,53,0.00,,---,0.00,VWS V14.01,2013-09-19 22:09:00,
2013-09-19 18:14:00,84.6,66.7,29.90,North,-999,-999.0,0.0,55,0.00,,---,0.00,VWS V14.01,2013-09-19 22:14:00,
2013-09-19 18:19:00,84.2,66.3,29.90,North,-999,-999.0,0.0,55,0.00,,---,0.00,VWS V14.01,2013-09-19 22:19:00,
2013-09-19 18:24:00,84.2,66.8,29.90,North,-999,-999.0,0.0,56,0.00,,---,0.00,VWS V14.01,2013-09-19 22:24:00,
2013-09-19 18:29:00,83.9,67.1,29.90,North,-999,-999.0,0.0,57,0.00,,---,0.00,VWS V14.01,2013-09-19 22:29:00,
2013-09-19 18:34:00,83.5,66.7,29.90,North,-999,-999.0,0.0,57,0.00,,---,0.00,VWS V14.01,2013-09-19 22:34:00,
2013-09-19 18:39:00,82.8,66.0,29.90,North,-999,-999.0,0.0,57,0.00,,---,0.00,VWS V14.01,2013-09-19 22:39:00,
2013-09-19 18:44:00,82.3,66.6,29.89,North,-999,-999.0,0.0,59,0.00,,---,0.00,VWS V14.01,2013-09-19 22:44:00,
2013-09-19 18:49:00,81.9,65.7,29.89,North,-999,-999.0,0.0,58,0.00,,---,0.00,VWS V14.01,2013-09-19 22:49:00,
2013-09-19 18:54:00,81.7,66.0,29.90,North,-999,-999.0,0.0,59,0.00,,---,0.00,VWS V14.01,2013-09-19 22:54:00,
2013-09-19 18:59:00,81.4,65.7,29.90,North,-999,-999.0,0.0,59,0.00,,---,0.00,VWS V14.01,2013-09-19 22:59:00,
2013-09-19 19:05:00,80.5,65.8,29.90,North,-999,-999.0,0.0,61,0.00,,---,0.00,VWS V14.01,2013-09-19 23:05:00,
2013-09-19 19:10:00,79.9,65.7,29.90,North,-999,-999.0,0.0,62,0.00,,---,0.00,VWS V14.01,2013-09-19 23:10:00,
2013-09-19 19:15:00,79.6,65.4,29.90,North,-999,-999.0,0.0,62,0.00,,---,0.00,VWS V14.01,2013-09-19 23:15:00,
2013-09-19 19:20:00,79.2,65.5,29.90,North,-999,-999.0,0.0,63,0.00,,---,0.00,VWS V14.01,2013-09-19 23:20:00,
2013-09-19 19:25:00,78.5,65.8,29.90,North,-999,-999.0,0.0,65,0.00,,---,0.00,VWS V14.01,2013-09-19 23:25:00,
2013-09-19 19:30:00,77.8,65.5,29.90,North,-999,-999.0,0.0,66,0.00,,---,0.00,VWS V14.01,2013-09-19 23:30:00,
2013-09-19 19:35:00,77.2,65.0,29.90,North,-999,-999.0,0.0,66,0.00,,---,0.00,VWS V14.01,2013-09-19 23:35:00,
2013-09-19 19:40:00,76.9,65.1,29.90,North,-999,-999.0,0.0,67,0.00,,---,0.00,VWS V14.01,2013-09-19 23:40:00,
2013-09-19 19:45:00,76.3,65.0,29.90,North,-999,-999.0,0.0,68,0.00,,---,0.00,VWS V14.01,2013-09-19 23:45:00,
2013-09-19 19:50:00,76.0,65.1,29.90,North,-999,-999.0,0.0,69,0.00,,---,0.00,VWS V14.01,2013-09-19 23:50:00,
2013-09-19 19:55:00,75.6,64.7,29.90,North,-999,-999.0,0.0,69,0.00,,---,0.00,VWS V14.01,2013-09-19 23:55:00,
2013-09-19 20:01:00,75.2,65.2,29.89,North,-999,-999.0,0.0,71,0.00,,---,0.00,VWS V14.01,2013-09-20 00:01:00,
2013-09-19 20:06:00,75.2,65.2,29.89,North,-999,-999.0,0.0,71,0.00,,---,0.00,VWS V14.01,2013-09-20 00:06:00,
2013-09-19 20:11:00,74.9,64.9,29.89,North,-999,-999.0,0.0,71,0.00,,---,0.00,VWS V14.01,2013-09-20 00:11:00,
2013-09-19 20:16:00,74.5,64.9,29.90,North,-999,-999.0,0.0,72,0.00,,---,0.00,VWS V14.01,2013-09-20 00:16:00,
2013-09-19 20:21:00,74.3,64.7,29.90,North,-999,-999.0,0.0,72,0.00,,---,0.00,VWS V14.01,2013-09-20 00:21:00,
2013-09-19 20:26:00,74.0,64.8,29.90,North,-999,-999.0,0.0,73,0.00,,---,0.00,VWS V14.01,2013-09-20 00:26:00,
2013-09-19 20:32:00,73.8,64.6,29.90,North,-999,-999.0,0.0,73,0.00,,---,0.00,VWS V14.01,2013-09-20 00:32:00,
2013-09-19 20:37:00,73.4,64.6,29.90,North,-999,-999.0,0.0,74,0.00,,---,0.00,VWS V14.01,2013-09-20 00:37:00,
2013-09-19 20:42:00,73.3,64.5,29.90,North,-999,-999.0,0.0,74,0.00,,---,0.00,VWS V14.01,2013-09-20 00:42:00,
2013-09-19 20:47:00,73.1,64.7,29.90,North,-999,-999.0,0.0,75,0.00,,---,0.00,VWS V14.01,2013-09-20 00:47:00,
2013-09-19 20:52:00,72.7,64.3,29.90,North,-999,-999.0,0.0,75,0.00,,---,0.00,VWS V14.01,2013-09-20 00:52:00,
2013-09-19 20:57:00,72.4,64.0,29.90,North,-999,-999.0,0.0,75,0.00,,---,0.00,VWS V14.01,2013-09-20 00:57:00,
2013-09-19 21:02:00,72.2,63.8,29.90,North,-999,-999.0,0.0,75,0.00,,---,0.00,VWS V14.01,2013-09-20 01:02:00,
2013-09-19 21:08:00,71.6,63.6,29.90,North,-999,-999.0,0.0,76,0.00,,---,0.00,VWS V14.01,2013-09-20 01:08:00,
2013-09-19 21:13:00,71.5,63.9,29.90,North,-999,-999.0,0.0,77,0.00,,---,0.00,VWS V14.01,2013-09-20 01:13:00,
2013-09-19 21:18:00,71.3,63.7,29.90,North,-999,-999.0,0.0,77,0.00,,---,0.00,VWS V14.01,2013-09-20 01:18:00,
2013-09-19 21:23:00,71.1,63.5,29.90,North,-999,-999.0,0.0,77,0.00,,---,0.00,VWS V14.01,2013-09-20 01:23:00,
2013-09-19 21:28:00,70.9,63.3,29.90,North,-999,-999.0,0.0,77,0.00,,---,0.00,VWS V14.01,2013-09-20 01:28:00,
2013-09-19 21:33:00,70.9,63.3,29.90,North,-999,-999.0,0.0,77,0.00,,---,0.00,VWS V14.01,2013-09-20 01:33:00,
2013-09-19 21:38:00,70.9,63.7,29.90,North,-999,-999.0,0.0,78,0.00,,---,0.00,VWS V14.01,2013-09-20 01:38:00,
2013-09-19 21:43:00,70.7,63.5,29.90,North,-999,-999.0,0.0,78,0.00,,---,0.00,VWS V14.01,2013-09-20 01:43:00,
2013-09-19 21:48:00,70.4,63.2,29.90,North,-999,-999.0,0.0,78,0.00,,---,0.00,VWS V14.01,2013-09-20 01:48:00,
2013-09-19 21:53:00,70.2,63.4,29.90,North,-999,-999.0,0.0,79,0.00,,---,0.00,VWS V14.01,2013-09-20 01:53:00,
2013-09-19 21:58:00,70.0,63.2,29.90,North,-999,-999.0,0.0,79,0.00,,---,0.00,VWS V14.01,2013-09-20 01:58:00,
2013-09-19 22:04:00,69.8,63.4,29.90,North,-999,-999.0,0.0,80,0.00,,---,0.00,VWS V14.01,2013-09-20 02:04:00,
2013-09-19 22:09:00,69.8,63.4,29.90,North,-999,-999.0,0.0,80,0.00,,---,0.00,VWS V14.01,2013-09-20 02:09:00,
2013-09-19 22:14:00,69.7,63.3,29.90,North,-999,-999.0,0.0,80,0.00,,---,0.00,VWS V14.01,2013-09-20 02:14:00,
2013-09-19 22:19:00,69.5,63.1,29.90,North,-999,-999.0,0.0,80,0.00,,---,0.00,VWS V14.01,2013-09-20 02:19:00,
2013-09-19 22:24:00,69.5,63.1,29.90,North,-999,-999.0,0.0,80,0.00,,---,0.00,VWS V14.01,2013-09-20 02:24:00,
2013-09-19 22:29:00,69.1,62.7,29.90,North,-999,-999.0,0.0,80,0.00,,---,0.00,VWS V14.01,2013-09-20 02:29:00,
2013-09-19 22:34:00,69.1,62.7,29.90,North,-999,-999.0,0.0,80,0.00,,---,0.00,VWS V14.01,2013-09-20 02:34:00,
2013-09-19 22:39:00,68.9,62.5,29.90,North,-999,-999.0,0.0,80,0.00,,---,0.00,VWS V14.01,2013-09-20 02:39:00,
2013-09-19 22:44:00,68.8,62.7,29.90,North,-999,-999.0,0.0,81,0.00,,---,0.00,VWS V14.01,2013-09-20 02:44:00,
2013-09-19 22:49:00,68.6,62.5,29.90,North,-999,-999.0,0.0,81,0.00,,---,0.00,VWS V14.01,2013-09-20 02:49:00,
2013-09-19 22:54:00,68.4,62.3,29.90,North,-999,-999.0,0.0,81,0.00,,---,0.00,VWS V14.01,2013-09-20 02:54:00,
2013-09-19 22:59:00,68.4,62.3,29.90,North,-999,-999.0,0.0,81,0.00,,---,0.00,VWS V14.01,2013-09-20 02:59:00,
2013-09-19 23:05:00,68.2,62.2,29.90,North,-999,-999.0,0.0,81,0.00,,---,0.00,VWS V14.01,2013-09-20 03:05:00,
2013-09-19 23:10:00,68.0,62.0,29.90,North,-999,-999.0,0.0,81,0.00,,---,0.00,VWS V14.01,2013-09-20 03:10:00,
2013-09-19 23:15:00,67.9,62.2,29.90,North,-999,-999.0,0.0,82,0.00,,---,0.00,VWS V14.01,2013-09-20 03:15:00,
2013-09-19 23:20:00,67.9,62.2,29.90,North,-999,-999.0,0.0,82,0.00,,---,0.00,VWS V14.01,2013-09-20 03:20:00,
2013-09-19 23:25:00,67.7,62.0,29.90,North,-999,-999.0,0.0,82,0.00,,---,0.00,VWS V14.01,2013-09-20 03:25:00,
2013-09-19 23:30:00,67.5,61.8,29.90,North,-999,-999.0,0.0,82,0.00,,---,0.00,VWS V14.01,2013-09-20 03:30:00,
2013-09-19 23:35:00,67.1,61.4,29.90,North,-999,-999.0,0.0,82,0.00,,---,0.00,VWS V14.01,2013-09-20 03:35:00,
2013-09-19 23:40:00,67.1,61.8,29.90,North,-999,-999.0,0.0,83,0.00,,---,0.00,VWS V14.01,2013-09-20 03:40:00,
2013-09-19 23:45:00,67.1,61.8,29.90,North,-999,-999.0,0.0,83,0.00,,---,0.00,VWS V14.01,2013-09-20 03:45:00,
2013-09-19 23:50:00,67.0,61.7,29.90,North,-999,-999.0,0.0,83,0.00,,---,0.00,VWS V14.01,2013-09-20 03:50:00,
2013-09-19 23:55:00,67.0,61.7,29.90,North,-999,-999.0,0.0,83,0.00,,---,0.00,VWS V14.01,2013-09-20 03:55:00,